Details From LJLJ - Ljubljana
To LQSA - Sarajevo
Flight Number -
Tags Generated
Created
Modified
Stats Distance 219 nm / 406 km
Max Altitude 0 ft / 0 m
Waypoints 3
Social Downloads 12
Likes 0
Share

Download

Looking for another format? Having issues loading an existing format? Contact us
Advertisement - Login to hide

Notes

Generated

Route

LJLJ KG LQSA

ID Type Via Altitude (ft/m) Position (lat/lon) Dist (leg/tot) Name
O LJLJ APT - 0 / 0 46.23249 / 14.44039 - / 0 nm
KG NDB - 0 / 0 43.88141 / 18.17701 212 / 212 nm KOBILJACA NDB
O LQSA APT - 0 / 0 43.82997 / 18.31714 6 / 219 nm

Altitude Profile

Advertisement - Login to hide

Weather


0- 5 10 15 20 25 30 35+ Temperature / °C

Clouds and Precipitation
Forecast for 2021-03-22 12:00 UTC. Updated 20 days ago

Ground ~20,000 ft ~40,000 ft Winds

LJLJ

Details ICAO LJLJ (LJU)
Name Ljubljana Joze Pucnik Int'l
Region Slovenia
Timezone Europe/Ljubljana (UTC+2.0)
Stats Elevation 1,271 ft / 387 m (AMSL)
Location 46.223700° 14.457600°
Runways 1
Magnetic Variation 4.042° E

METAR

LJLJ 110930Z 31005KT 9999 -RA FEW012 BKN033 OVC045 09/06 Q1020 NOSIG

Decode

TAF

TAF LJLJ 110500Z 1106/1206 27005KT 9999 BKN040 TEMPO 1106/1206 -RA PROB40 TEMPO 1120/1206 5000 RA BR BKN015 OVC030

Decode

Departure Runways

ID Width Length Bearing (true/mag) Surface Threshold Overrun Markings Lighting
12 148 ft / 45 m 10,838 ft / 3,303 m 126.47° / 122.43° ASPHALT 0 ft / 0 m 0 ft / 0 m APP CENTERLINE EDGE THRESHOLD SALS REIL-OMNI
30 148 ft / 45 m 10,838 ft / 3,303 m 306.50° / 302.46° ASPHALT 0 ft / 0 m 0 ft / 0 m PREC-APP CENTERLINE EDGE THRESHOLD CALVERT-ILS TDZ REIL-OMNI

LQSA

Details ICAO LQSA (SJJ)
Name Sarajevo
Region Bosnia and Herzegovinia
Timezone Europe/Sarajevo (UTC+2.0)
Stats Elevation 1,708 ft / 521 m (AMSL)
Location 43.824500° 18.331800°
Runways 1
Magnetic Variation 4.580° E

METAR

LQSA 110930Z VRB01KT CAVOK 07/M01 Q1021 NOSIG

Decode

TAF

TAF LQSA 110500Z 1106/1206 18008KT 9999 SCT050 TX18/11122Z TN03/1204Z

Decode

Destination Runways

ID Width Length Bearing (true/mag) Surface Threshold Overrun Markings Lighting
11 148 ft / 45 m 8,515 ft / 2,595 m 117.43° / 112.85° ASPHALT 328 ft / 100 m 0 ft / 0 m PREC-APP CENTERLINE EDGE THRESHOLD ALSF-I REIL-OMNI
29 148 ft / 45 m 8,515 ft / 2,595 m 297.45° / 292.87° ASPHALT 1,637 ft / 499 m 0 ft / 0 m PREC-APP CENTERLINE EDGE THRESHOLD

Approach Navaids

Runway Type Ident Frequency Range Bearing (true/mag) Slope Elevation
11 LOC-ILS BHS 110.70 MHz 18 nm / 33 km 117.35° / 112.77 ° - 1,708 ft / 521 m (AMSL)

Popular Alternatives